createdAt,value
2023-05-04T00:00:19.958Z,9.58
2023-05-04T00:02:47.155Z,9.55
2023-05-04T00:05:14.528Z,9.55
2023-05-04T00:07:41.700Z,9.51
2023-05-04T00:10:09.471Z,9.49
2023-05-04T00:12:36.706Z,9.48
2023-05-04T00:15:04.963Z,9.45
2023-05-04T00:17:32.272Z,9.44
2023-05-04T00:19:59.094Z,9.41
2023-05-04T00:22:26.073Z,9.38
2023-05-04T00:24:52.819Z,9.37
2023-05-04T00:27:19.690Z,9.33
2023-05-04T00:29:46.484Z,9.30
2023-05-04T00:32:13.340Z,9.25
2023-05-04T00:34:41.595Z,9.21
2023-05-04T00:37:08.462Z,9.19
2023-05-04T00:39:35.511Z,9.16
2023-05-04T00:42:03.178Z,9.10
2023-05-04T00:44:30.057Z,9.06
2023-05-04T00:46:58.383Z,9.03
2023-05-04T00:49:26.459Z,9.00
2023-05-04T00:51:56.989Z,8.97
2023-05-04T00:54:25.876Z,8.94
2023-05-04T00:56:53.432Z,8.91
2023-05-04T00:59:20.408Z,8.89
2023-05-04T01:01:47.256Z,8.84
2023-05-04T01:04:16.024Z,8.82
2023-05-04T01:07:10.131Z,8.76
2023-05-04T01:10:02.019Z,8.74
2023-05-04T01:12:56.117Z,8.69
2023-05-04T01:15:23.926Z,8.63
2023-05-04T01:17:50.770Z,8.59
2023-05-04T01:20:17.587Z,8.56
2023-05-04T01:22:45.093Z,8.54
2023-05-04T01:25:12.057Z,8.52
2023-05-04T01:28:19.249Z,8.47
2023-05-04T01:30:51.563Z,8.44
2023-05-04T01:33:19.790Z,8.40
2023-05-04T01:35:47.445Z,8.39
2023-05-04T01:38:14.518Z,8.36
2023-05-04T01:40:41.381Z,8.32
2023-05-04T01:43:08.222Z,8.31
2023-05-04T01:45:35.148Z,8.25
2023-05-04T01:48:02.098Z,8.22
2023-05-04T01:50:29.015Z,8.19
2023-05-04T01:52:55.838Z,8.16
2023-05-04T01:55:22.716Z,8.12
2023-05-04T01:57:49.557Z,8.07
2023-05-04T02:00:16.782Z,8.06
2023-05-04T02:02:44.546Z,8.04
2023-05-04T02:05:15.918Z,7.99
2023-05-04T02:07:42.774Z,7.98
2023-05-04T02:10:10.015Z,7.94
2023-05-04T02:12:36.999Z,7.92
2023-05-04T02:15:04.328Z,7.90
2023-05-04T02:17:31.228Z,7.86
2023-05-04T02:19:58.051Z,7.87
2023-05-04T02:22:24.862Z,7.84
2023-05-04T02:24:52.966Z,7.83
2023-05-04T02:27:20.689Z,7.83
2023-05-04T02:29:47.506Z,7.77
2023-05-04T02:32:14.541Z,7.76
2023-05-04T02:34:41.401Z,7.73
2023-05-04T02:37:08.282Z,7.74
2023-05-04T02:39:35.245Z,7.72
2023-05-04T02:42:03.015Z,7.69
2023-05-04T02:44:29.824Z,7.66
2023-05-04T02:46:56.937Z,7.64
2023-05-04T02:49:23.807Z,7.61
2023-05-04T02:51:51.479Z,7.58
2023-05-04T02:54:18.337Z,7.55
2023-05-04T02:56:45.081Z,7.52
2023-05-04T02:59:11.915Z,7.48
2023-05-04T03:01:38.759Z,7.46
2023-05-04T03:04:07.466Z,7.41
2023-05-04T03:06:34.335Z,7.38
2023-05-04T03:09:01.436Z,7.35
2023-05-04T03:11:28.245Z,7.31
2023-05-04T03:13:55.074Z,7.31
2023-05-04T03:16:22.143Z,7.29
2023-05-04T03:18:50.394Z,7.26
2023-05-04T03:21:17.281Z,7.23
2023-05-04T03:23:44.225Z,7.21
2023-05-04T03:26:11.118Z,7.20
2023-05-04T03:28:37.992Z,7.18
2023-05-04T03:31:04.851Z,7.14
2023-05-04T03:33:31.874Z,7.13
2023-05-04T03:35:59.007Z,7.10
2023-05-04T03:38:26.060Z,7.10
2023-05-04T03:40:53.177Z,7.10
2023-05-04T03:43:20.076Z,7.06
2023-05-04T03:45:46.893Z,7.05
2023-05-04T03:48:13.752Z,7.04
2023-05-04T03:50:42.331Z,7.02
2023-05-04T03:53:09.149Z,7.00
2023-05-04T03:55:36.039Z,6.99
2023-05-04T03:58:03.322Z,6.99
2023-05-04T04:00:31.453Z,6.97
2023-05-04T04:03:08.113Z,6.97
2023-05-04T04:05:36.193Z,6.93
2023-05-04T04:08:03.393Z,6.92
2023-05-04T04:10:31.468Z,6.91
2023-05-04T04:12:58.326Z,6.92
2023-05-04T04:15:25.236Z,6.91
2023-05-04T04:17:52.118Z,6.91
2023-05-04T04:20:19.114Z,6.92
2023-05-04T04:22:46.186Z,6.93
2023-05-04T04:25:13.630Z,6.93
2023-05-04T04:27:41.262Z,6.96
2023-05-04T04:30:09.138Z,6.99
2023-05-04T04:32:36.063Z,7.00
2023-05-04T04:35:03.517Z,7.05
2023-05-04T04:37:30.295Z,7.10
2023-05-04T04:39:57.082Z,7.17
2023-05-04T04:42:23.983Z,7.28
2023-05-04T04:44:50.806Z,7.42
2023-05-04T04:47:18.250Z,7.63
2023-05-04T04:49:45.061Z,7.76
2023-05-04T04:52:12.601Z,7.79
2023-05-04T04:54:39.432Z,7.82
2023-05-04T04:57:06.280Z,7.90
2023-05-04T04:59:33.119Z,7.96
2023-05-04T05:02:00.640Z,7.96
2023-05-04T05:04:28.175Z,7.95
2023-05-04T05:06:55.029Z,7.93
2023-05-04T05:09:21.852Z,7.95
2023-05-04T05:11:48.669Z,7.99
2023-05-04T05:14:15.530Z,8.00
2023-05-04T05:16:42.413Z,8.04
2023-05-04T05:19:09.193Z,8.06
2023-05-04T05:21:35.979Z,8.07
2023-05-04T05:24:03.019Z,8.08
2023-05-04T05:26:30.528Z,8.13
2023-05-04T05:28:57.515Z,8.17
2023-05-04T05:31:24.361Z,8.18
2023-05-04T05:33:51.402Z,8.24
2023-05-04T05:36:18.234Z,8.30
2023-05-04T05:38:45.138Z,8.37
2023-05-04T05:41:12.241Z,8.49
2023-05-04T05:43:39.126Z,8.61
2023-05-04T05:46:06.908Z,8.73
2023-05-04T05:48:34.347Z,8.82
2023-05-04T05:51:01.374Z,8.88
2023-05-04T05:53:28.326Z,8.95
2023-05-04T05:55:55.150Z,9.09
2023-05-04T05:58:21.996Z,9.25
2023-05-04T06:00:52.379Z,9.37
2023-05-04T06:03:19.620Z,9.51
2023-05-04T06:05:46.683Z,9.67
2023-05-04T06:08:13.518Z,9.84
2023-05-04T06:10:40.376Z,9.95
2023-05-04T06:13:07.215Z,10.01
2023-05-04T06:15:34.952Z,10.16
2023-05-04T06:18:01.969Z,10.26
2023-05-04T06:20:29.270Z,10.29
2023-05-04T06:22:57.319Z,10.28
2023-05-04T06:25:24.636Z,10.32
2023-05-04T06:27:51.519Z,10.39
2023-05-04T06:30:18.515Z,10.50
2023-05-04T06:32:45.383Z,10.56
2023-05-04T06:35:12.383Z,10.65
2023-05-04T06:37:39.375Z,10.75
2023-05-04T06:40:07.985Z,10.88
2023-05-04T06:42:35.100Z,11.01
2023-05-04T06:45:02.227Z,11.19
2023-05-04T06:47:29.264Z,11.36
2023-05-04T06:49:56.069Z,11.49
2023-05-04T06:52:22.910Z,11.56
2023-05-04T06:54:49.682Z,11.63
2023-05-04T06:57:16.544Z,11.72
2023-05-04T06:59:43.317Z,11.90
2023-05-04T07:02:10.286Z,12.15
2023-05-04T07:04:37.154Z,12.29
2023-05-04T07:07:04.083Z,12.44
2023-05-04T07:09:30.922Z,12.57
2023-05-04T07:11:57.746Z,12.71
2023-05-04T07:14:24.655Z,12.94
2023-05-04T07:16:51.582Z,13.14
2023-05-04T07:19:20.534Z,13.31
2023-05-04T07:21:47.584Z,13.45
2023-05-04T07:24:14.794Z,13.62
2023-05-04T07:26:41.632Z,13.91
2023-05-04T07:29:09.458Z,14.19
2023-05-04T07:31:36.571Z,14.53
2023-05-04T07:34:03.484Z,14.83
2023-05-04T07:36:30.716Z,15.07
2023-05-04T07:38:57.727Z,15.40
2023-05-04T07:41:24.492Z,15.85
2023-05-04T07:43:51.286Z,16.18
2023-05-04T07:46:18.194Z,16.40
2023-05-04T07:48:45.047Z,16.52
2023-05-04T07:51:16.273Z,16.57
2023-05-04T07:53:43.712Z,16.78
2023-05-04T07:56:14.176Z,16.92
2023-05-04T07:58:42.050Z,16.99
2023-05-04T08:01:08.844Z,17.07
2023-05-04T08:03:36.394Z,17.20
2023-05-04T08:06:03.381Z,17.35
2023-05-04T08:08:30.440Z,17.32
2023-05-04T08:11:07.948Z,17.27
2023-05-04T08:13:46.471Z,17.08
2023-05-04T08:16:13.733Z,17.10
2023-05-04T08:18:40.670Z,17.18
2023-05-04T08:21:07.683Z,17.22
2023-05-04T08:23:35.990Z,17.41
2023-05-04T08:26:04.526Z,17.64
2023-05-04T08:28:35.770Z,17.89
2023-05-04T08:31:03.860Z,18.08
2023-05-04T08:33:30.773Z,18.24
2023-05-04T08:35:58.328Z,18.28
2023-05-04T08:38:25.211Z,18.47
2023-05-04T08:40:52.797Z,18.49
2023-05-04T08:43:19.711Z,18.57
2023-05-04T08:45:46.850Z,18.65
2023-05-04T08:48:14.003Z,18.82
2023-05-04T08:50:41.303Z,19.00
2023-05-04T08:53:13.757Z,19.01
2023-05-04T08:55:43.945Z,19.01
2023-05-04T08:58:13.524Z,19.13
2023-05-04T09:00:43.492Z,19.41
2023-05-04T09:03:12.460Z,19.71
2023-05-04T09:05:41.894Z,20.03
2023-05-04T09:08:08.991Z,20.14
2023-05-04T09:10:36.744Z,20.28
2023-05-04T09:13:03.772Z,20.29
2023-05-04T09:15:31.554Z,20.19
2023-05-04T09:18:03.601Z,20.16
2023-05-04T09:20:42.641Z,20.23
2023-05-04T09:23:09.748Z,20.30
2023-05-04T09:25:56.654Z,20.43
2023-05-04T09:28:39.325Z,20.46
2023-05-04T09:31:07.693Z,20.48
2023-05-04T09:33:34.958Z,20.47
2023-05-04T09:36:21.100Z,20.59
2023-05-04T09:38:48.911Z,20.83
2023-05-04T09:41:16.215Z,21.09
2023-05-04T09:43:45.382Z,21.14
2023-05-04T09:46:19.430Z,21.35
2023-05-04T09:48:55.207Z,21.45
2023-05-04T09:51:27.564Z,21.43
2023-05-04T09:53:54.740Z,21.31
2023-05-04T09:56:33.720Z,21.15
2023-05-04T09:59:00.601Z,21.29
2023-05-04T10:01:29.863Z,21.48
2023-05-04T10:03:57.041Z,21.58
2023-05-04T10:06:24.964Z,21.88
2023-05-04T10:08:52.103Z,22.35
2023-05-04T10:11:20.352Z,22.64
2023-05-04T10:13:49.388Z,22.94
2023-05-04T10:16:45.247Z,23.11
2023-05-04T10:19:31.195Z,23.12
2023-05-04T10:22:34.090Z,23.16
2023-05-04T10:25:34.735Z,23.01
2023-05-04T10:28:05.286Z,22.80
2023-05-04T10:30:32.399Z,22.78
2023-05-04T10:33:02.165Z,22.93
2023-05-04T10:35:29.085Z,23.00
2023-05-04T10:37:56.872Z,23.04
2023-05-04T10:40:36.732Z,23.06
2023-05-04T10:43:04.164Z,23.15
2023-05-04T10:45:40.000Z,23.29
2023-05-04T10:48:09.533Z,23.28
2023-05-04T10:50:45.044Z,23.36
2023-05-04T10:53:16.164Z,23.38
2023-05-04T10:55:46.157Z,23.32
2023-05-04T10:58:16.761Z,23.27
2023-05-04T11:00:47.178Z,23.25
2023-05-04T11:03:15.313Z,23.19
2023-05-04T11:05:54.538Z,23.21
2023-05-04T11:08:26.831Z,23.50
2023-05-04T11:11:06.854Z,23.55
2023-05-04T11:13:35.477Z,23.64
2023-05-04T11:16:02.589Z,23.70
2023-05-04T11:18:34.601Z,23.88
2023-05-04T11:21:02.523Z,24.01
2023-05-04T11:23:30.320Z,24.24
2023-05-04T11:25:57.265Z,24.45
2023-05-04T11:28:37.490Z,24.73
2023-05-04T11:31:15.522Z,24.88
2023-05-04T11:33:54.804Z,24.85
2023-05-04T11:36:22.781Z,24.75
2023-05-04T11:38:50.203Z,24.69
2023-05-04T11:41:17.188Z,24.54
2023-05-04T11:43:46.653Z,24.69
2023-05-04T11:46:16.498Z,24.86
2023-05-04T11:48:44.463Z,24.96
2023-05-04T11:51:11.374Z,24.90
2023-05-04T11:53:40.656Z,24.98
2023-05-04T11:56:11.195Z,25.32
2023-05-04T11:58:38.178Z,25.57
2023-05-04T12:01:05.372Z,25.83
2023-05-04T12:03:52.237Z,25.69
2023-05-04T12:06:32.364Z,25.78
2023-05-04T12:09:06.583Z,26.06
2023-05-04T12:11:35.303Z,26.47
2023-05-04T12:14:07.045Z,26.64
2023-05-04T12:16:34.294Z,26.64
2023-05-04T12:19:06.220Z,26.89
2023-05-04T12:21:35.185Z,26.85
2023-05-04T12:24:03.653Z,26.71
2023-05-04T12:26:30.589Z,26.63
2023-05-04T12:28:57.518Z,26.79
2023-05-04T12:31:25.218Z,26.98
2023-05-04T12:33:52.814Z,26.87
2023-05-04T12:36:19.933Z,26.79
2023-05-04T12:38:46.906Z,26.32
2023-05-04T12:41:14.035Z,25.94
2023-05-04T12:43:41.344Z,25.57
2023-05-04T12:46:08.374Z,25.60
2023-05-04T12:48:35.438Z,25.93
2023-05-04T12:51:04.910Z,25.97
2023-05-04T12:53:32.395Z,26.07
2023-05-04T12:56:01.216Z,26.27
2023-05-04T12:58:28.735Z,26.25
2023-05-04T13:00:57.793Z,26.23
2023-05-04T13:03:24.824Z,26.11
2023-05-04T13:05:52.371Z,26.16
2023-05-04T13:08:19.865Z,26.24
2023-05-04T13:10:47.238Z,26.45
2023-05-04T13:13:17.518Z,26.57
2023-05-04T13:15:45.257Z,26.87
2023-05-04T13:18:13.068Z,27.10
2023-05-04T13:20:40.820Z,27.34
2023-05-04T13:23:08.052Z,27.60
2023-05-04T13:25:34.949Z,27.54
2023-05-04T13:28:01.843Z,27.64
2023-05-04T13:30:29.402Z,27.64
2023-05-04T13:32:56.354Z,27.69
2023-05-04T13:35:23.904Z,27.83
2023-05-04T13:37:51.490Z,27.50
2023-05-04T13:40:18.565Z,27.18
2023-05-04T13:42:45.475Z,26.95
2023-05-04T13:45:13.166Z,26.98
2023-05-04T13:47:40.687Z,27.04
2023-05-04T13:50:08.555Z,27.18
2023-05-04T13:52:36.968Z,27.53
2023-05-04T13:55:04.819Z,27.56
2023-05-04T13:57:31.914Z,27.45
2023-05-04T14:00:07.131Z,27.36
2023-05-04T14:02:41.225Z,27.23
2023-05-04T14:05:09.181Z,27.04
2023-05-04T14:07:36.399Z,26.95
2023-05-04T14:10:03.830Z,26.85
2023-05-04T14:12:30.830Z,26.68
2023-05-04T14:14:59.064Z,26.63
2023-05-04T14:17:25.919Z,26.73
2023-05-04T14:19:52.774Z,26.72
2023-05-04T14:22:19.540Z,26.73
2023-05-04T14:24:46.360Z,26.73
2023-05-04T14:27:13.163Z,26.73
2023-05-04T14:29:39.982Z,27.00
2023-05-04T14:32:07.046Z,27.13
2023-05-04T14:34:33.906Z,26.77
2023-05-04T14:37:01.646Z,26.40
2023-05-04T14:39:29.637Z,26.36
2023-05-04T14:41:58.646Z,26.38
2023-05-04T14:44:29.898Z,26.61
2023-05-04T14:47:37.212Z,27.07
2023-05-04T14:50:06.404Z,27.36
2023-05-04T14:52:33.553Z,27.51
2023-05-04T14:55:00.431Z,27.70
2023-05-04T14:57:27.488Z,27.97
2023-05-04T14:59:54.762Z,28.07
2023-05-04T15:02:21.578Z,27.93
2023-05-04T15:04:49.242Z,27.74
2023-05-04T15:07:18.187Z,27.70
2023-05-04T15:09:44.997Z,27.57
2023-05-04T15:12:12.527Z,27.44
2023-05-04T15:14:39.392Z,27.30
2023-05-04T15:17:07.366Z,26.98
2023-05-04T15:19:38.145Z,26.94
2023-05-04T15:22:06.460Z,26.99
2023-05-04T15:24:33.455Z,26.93
2023-05-04T15:27:00.283Z,26.77
2023-05-04T15:29:27.312Z,26.58
2023-05-04T15:31:55.315Z,26.40
2023-05-04T15:34:22.388Z,26.36
2023-05-04T15:36:52.136Z,26.37
2023-05-04T15:39:18.977Z,26.18
2023-05-04T15:41:45.749Z,25.95
2023-05-04T15:44:12.513Z,25.74
2023-05-04T15:46:39.365Z,25.65
2023-05-04T15:49:06.345Z,25.49
2023-05-04T15:51:33.479Z,25.36
2023-05-04T15:54:00.436Z,25.25
2023-05-04T15:56:28.857Z,25.22
2023-05-04T15:58:55.864Z,25.13
2023-05-04T16:01:22.868Z,25.00
2023-05-04T16:03:49.992Z,24.87
2023-05-04T16:06:17.618Z,24.79
2023-05-04T16:08:44.521Z,24.94
2023-05-04T16:11:11.471Z,24.91
2023-05-04T16:13:38.348Z,24.84
2023-05-04T16:16:05.702Z,24.92
2023-05-04T16:18:32.521Z,25.04
2023-05-04T16:20:59.382Z,25.24
2023-05-04T16:23:28.053Z,25.58
2023-05-04T16:25:54.980Z,25.79
2023-05-04T16:28:22.037Z,25.97
2023-05-04T16:30:50.111Z,25.95
2023-05-04T16:33:17.354Z,25.91
2023-05-04T16:35:44.316Z,25.87
2023-05-04T16:38:13.330Z,25.77
2023-05-04T16:40:42.150Z,25.69
2023-05-04T16:43:10.443Z,25.67
2023-05-04T16:45:38.362Z,25.67
2023-05-04T16:48:06.277Z,25.74
2023-05-04T16:50:33.378Z,25.68
2023-05-04T16:53:00.543Z,25.53
2023-05-04T16:55:27.493Z,25.33
2023-05-04T16:57:58.475Z,25.27
2023-05-04T17:00:25.745Z,25.26
2023-05-04T17:02:53.188Z,25.11
2023-05-04T17:05:21.031Z,24.88
2023-05-04T17:07:48.521Z,24.58
2023-05-04T17:10:15.475Z,24.35
2023-05-04T17:12:42.643Z,24.15
2023-05-04T17:15:11.253Z,24.04
2023-05-04T17:17:38.265Z,23.95
2023-05-04T17:20:06.741Z,23.91
2023-05-04T17:22:33.740Z,23.89
2023-05-04T17:25:00.526Z,23.82
2023-05-04T17:27:27.394Z,23.73
2023-05-04T17:29:54.205Z,23.64
2023-05-04T17:32:21.313Z,23.59
2023-05-04T17:34:48.281Z,23.56
2023-05-04T17:37:15.056Z,23.50
2023-05-04T17:39:41.838Z,23.45
2023-05-04T17:42:08.753Z,23.41
2023-05-04T17:44:35.550Z,23.37
2023-05-04T17:47:02.423Z,23.30
2023-05-04T17:49:29.528Z,23.24
2023-05-04T17:51:56.509Z,23.18
2023-05-04T17:54:23.415Z,23.12
2023-05-04T17:56:50.256Z,23.05
2023-05-04T17:59:17.771Z,23.02
2023-05-04T18:01:45.820Z,22.98
2023-05-04T18:04:12.816Z,22.92
2023-05-04T18:06:39.634Z,22.85
2023-05-04T18:09:06.541Z,22.79
2023-05-04T18:11:33.424Z,22.74
2023-05-04T18:14:00.198Z,22.66
2023-05-04T18:16:27.086Z,22.59
2023-05-04T18:18:54.058Z,22.52
2023-05-04T18:21:21.119Z,22.44
2023-05-04T18:23:47.960Z,22.37
2023-05-04T18:26:20.251Z,22.27
2023-05-04T18:28:47.113Z,22.18
2023-05-04T18:31:14.572Z,22.09
2023-05-04T18:33:42.118Z,22.03
2023-05-04T18:36:09.194Z,21.95
2023-05-04T18:38:37.212Z,21.85
2023-05-04T18:41:05.320Z,21.78
2023-05-04T18:43:32.366Z,21.71
2023-05-04T18:46:07.188Z,21.62
2023-05-04T18:48:34.095Z,21.51
2023-05-04T18:51:01.032Z,21.43
2023-05-04T18:53:28.946Z,21.34
2023-05-04T18:56:06.863Z,21.25
2023-05-04T18:58:37.058Z,21.15
2023-05-04T19:01:04.933Z,21.08
2023-05-04T19:03:32.984Z,21.01
2023-05-04T19:05:59.956Z,20.92
2023-05-04T19:08:27.014Z,20.83
2023-05-04T19:11:02.956Z,20.76
2023-05-04T19:13:31.228Z,20.68
2023-05-04T19:15:58.049Z,20.60
2023-05-04T19:18:25.000Z,20.53
2023-05-04T19:20:51.826Z,20.47
2023-05-04T19:23:18.798Z,20.39
2023-05-04T19:25:45.573Z,20.31
2023-05-04T19:28:12.584Z,20.22
2023-05-04T19:30:41.060Z,20.15
2023-05-04T19:33:11.042Z,20.07
2023-05-04T19:35:37.925Z,19.98
2023-05-04T19:38:06.635Z,19.91
2023-05-04T19:40:34.562Z,19.84
2023-05-04T19:43:01.731Z,19.75
2023-05-04T19:45:28.676Z,19.67
2023-05-04T19:47:55.915Z,19.56
2023-05-04T19:50:22.783Z,19.48
2023-05-04T19:52:50.386Z,19.40
2023-05-04T19:55:17.543Z,19.34
2023-05-04T19:57:44.336Z,19.26
2023-05-04T20:00:12.714Z,19.20
2023-05-04T20:02:39.853Z,19.14
2023-05-04T20:05:07.187Z,19.06
2023-05-04T20:07:34.021Z,18.99
2023-05-04T20:10:01.061Z,18.92
2023-05-04T20:12:27.859Z,18.87
2023-05-04T20:14:54.792Z,18.78
2023-05-04T20:17:21.957Z,18.71
2023-05-04T20:19:49.380Z,18.65
2023-05-04T20:22:16.493Z,18.60
2023-05-04T20:24:43.388Z,18.54
2023-05-04T20:27:10.286Z,18.50
2023-05-04T20:29:37.708Z,18.49
2023-05-04T20:32:05.662Z,18.47
2023-05-04T20:34:33.108Z,18.47
2023-05-04T20:37:00.342Z,18.42
2023-05-04T20:39:27.285Z,18.42
2023-05-04T20:41:54.106Z,18.38
2023-05-04T20:44:20.928Z,18.34
2023-05-04T20:46:47.822Z,18.33
2023-05-04T20:49:15.124Z,18.27
2023-05-04T20:51:42.336Z,18.24
2023-05-04T20:54:09.397Z,18.21
2023-05-04T20:56:36.457Z,18.18
2023-05-04T20:59:03.328Z,18.16
2023-05-04T21:01:30.262Z,18.12
2023-05-04T21:03:57.271Z,18.06
2023-05-04T21:06:24.601Z,18.02
2023-05-04T21:08:51.644Z,17.97
2023-05-04T21:11:18.523Z,17.94
2023-05-04T21:13:45.362Z,17.91
2023-05-04T21:16:12.523Z,17.89
2023-05-04T21:18:40.688Z,17.88
2023-05-04T21:21:07.547Z,17.84
2023-05-04T21:23:34.330Z,17.83
2023-05-04T21:26:04.692Z,17.82
2023-05-04T21:28:32.269Z,17.83
2023-05-04T21:30:59.223Z,17.85
2023-05-04T21:33:26.247Z,17.86
2023-05-04T21:35:53.131Z,17.84
2023-05-04T21:38:21.984Z,17.85
2023-05-04T21:40:49.510Z,17.93
2023-05-04T21:43:16.443Z,17.97
2023-05-04T21:45:43.340Z,17.98
2023-05-04T21:48:10.429Z,17.97
2023-05-04T21:50:37.512Z,17.97
2023-05-04T21:53:04.343Z,17.98
2023-05-04T21:55:31.118Z,17.95
2023-05-04T21:57:57.863Z,17.94
2023-05-04T22:00:24.977Z,17.91
2023-05-04T22:02:54.940Z,17.89
2023-05-04T22:05:22.587Z,17.86
2023-05-04T22:07:50.012Z,17.83
2023-05-04T22:10:17.733Z,17.79
2023-05-04T22:12:44.594Z,17.78
2023-05-04T22:15:11.924Z,17.81
2023-05-04T22:17:38.970Z,17.85
2023-05-04T22:20:07.080Z,17.91
2023-05-04T22:22:34.848Z,17.93
2023-05-04T22:25:01.908Z,17.89
2023-05-04T22:27:28.796Z,17.91
2023-05-04T22:29:55.726Z,17.88
2023-05-04T22:32:22.507Z,17.89
2023-05-04T22:34:49.421Z,17.87
2023-05-04T22:37:16.392Z,17.80
2023-05-04T22:39:43.266Z,17.75
2023-05-04T22:42:10.297Z,17.67
2023-05-04T22:44:37.149Z,17.70
2023-05-04T22:47:04.277Z,17.67
2023-05-04T22:49:31.089Z,17.60
2023-05-04T22:51:57.932Z,17.60
2023-05-04T22:54:25.736Z,17.57
2023-05-04T22:56:52.582Z,17.55
2023-05-04T22:59:19.381Z,17.52
2023-05-04T23:01:46.637Z,17.54
2023-05-04T23:04:13.545Z,17.57
2023-05-04T23:06:40.370Z,17.56
2023-05-04T23:09:07.169Z,17.51
2023-05-04T23:11:34.023Z,17.47
2023-05-04T23:14:01.062Z,17.44
2023-05-04T23:16:28.368Z,17.48
2023-05-04T23:18:55.351Z,17.51
2023-05-04T23:21:22.206Z,17.45
2023-05-04T23:23:51.912Z,17.41
2023-05-04T23:26:19.178Z,17.35
2023-05-04T23:28:46.181Z,17.33
2023-05-04T23:31:13.144Z,17.31
2023-05-04T23:33:40.085Z,17.34
2023-05-04T23:36:07.253Z,17.39
2023-05-04T23:38:34.867Z,17.40
2023-05-04T23:41:05.845Z,17.45
2023-05-04T23:43:32.731Z,17.52
2023-05-04T23:46:04.370Z,17.57
2023-05-04T23:48:32.634Z,17.63
2023-05-04T23:51:05.811Z,17.68
2023-05-04T23:53:35.163Z,17.74
2023-05-04T23:56:06.489Z,17.74
2023-05-04T23:58:34.935Z,17.72
